PH-0052 weather

Port of Manila South Harbor Pier 13 Helipad
Manila South Harbor, Philippines

Public forecast

Using degrees Celsius for public forecast. Weather courtesy of forecast.io.

METAR (pilot weather report)

Closest report is Ninoy Aquino International Airport, 5.4 nm (10.0 km) SE. Retrieved 2019/07/23 00:00 UTC (10 minutes ago):

RPLL 230000Z 01003KT 9000 FEW023 BKN090 28/25 Q1009 NOSIG RMK A2980

TAF (pilot weather forecast)

Forecast is more than 12 hours old.

Closest forecast is Ninoy Aquino International Airport, 5.4 nm (10.0 km) SE. Retrieved 2019/07/22 00:00 UTC (1 day ago):

TAF RPLL 222300Z 2300/2406 26006KT 9999 FEW023 SCT100 TX33/2306Z TN26/2322Z TEMPO 2300/2306 27011KT 9000 -SHRA FEW022CB SCT023 BKN090 TEMPO 2306/2312 24012KT 7000 -TSRA FEW020CB SCT022 OVC080